Monday, December 22, 2014
14:12 UTC
  |  Log In   |  Register Free
Airport Search:

Southwest Georgia Regional Airport
(KABY)

FAA data valid effective November 13, 2014 - January 08, 2015 (unless otherwise noted).

 
 
 
 
 
 
 
 
 
 
 
 
 
 

Current Aviation Weather for Southwest Georgia Regional Airport (KABY)

The most recent METAR observation for KABY was updated at: 2111
METAR Summary (Translated METAR)
KABY
182053Z 27003KT 10SM CLR 19/M01 A3012 RMK AO2 SLP198 T01891011 56015
KMGR
182055Z AUTO 24003KT 10SM CLR 17/04 A3011 RMK AO2
(33.7 nm SE from KABY)
KACJ
182055Z AUTO 28003KT 10SM SCT110 18/M06 A3010 RMK AO2
(34.5 nm NE from KABY)
TAF Summary (Translated TAF)
KABY
221124Z 2212/2312 06005KT 1SM RA BR OVC002 FM221400 08005KT 4SM -RA BR OVC005 FM230000 12005KT 2SM -RA BR OVC002
  Airport Weather Conditions for KABY

 Current Weather at ABY
49° F
Overcast
Northeast winds at 4.6 mph
ABY NOAA Radar

Pressure: 30.03 in
Humidity: 97%
Wind: Northeast at 4.6 MPH (4 KT)
Dew Point: 48.0°F
Visibility: 7.00 mi


Airport Weather Forecast for KABY

Translated METAR and TAF for KABY
Translated METAR for KABY (1413 UTC 22 December 2014)
found at http://aviationweather.gov/adds/metars/
 
METAR text: KABY 221353Z 03004KT 7SM -RA OVC004 09/09 A3002 RMK AO2 RAB1256E09B33 SLP165 P0001 T00940089
Conditions at: KABY (ALBANY , GA, US) observed 1353 UTC 22 December 2014
Temperature: 9.4°C (49°F)
Dewpoint: 8.9°C (48°F) [RH = 97%]
Pressure (altimeter): 30.02 inches Hg (1016.7 mb)
[Sea-level pressure: 1016.5 mb]
Winds: from the NNE (30 degrees) at 5 MPH (4 knots; 2.1 m/s)
Visibility: 7 miles (11 km)
Ceiling: 400 feet AGL
Clouds: overcast cloud deck at 400 feet AGL
Weather: -RA  (light rain)
Translated TAF for KABY
Forecast for: KABY (ALBANY , GA, US)
TAF Text: KABY 221124Z 2212/2312 06005KT 1SM RA BR OVC002
Forecast period: 1200 to 1400 UTC 22 December 2014
Forecast type: FROM: standard forecast or significant change
Winds: from the ENE (60 degrees) at 6 MPH (5 knots; 2.6 m/s)
Visibility: 1.00 miles (1.61 km)
Ceiling: 200 feet AGL
Clouds: overcast cloud deck at 200 feet AGL
Weather: RA BR  (rain, mist)
TAF Text: FM221400 08005KT 4SM -RA BR OVC005
Forecast period: 1400 UTC 22 December 2014 to 0000 UTC 23 December 2014
Forecast type: FROM: standard forecast or significant change
Winds: from the E (80 degrees) at 6 MPH (5 knots; 2.6 m/s)
Visibility: 4 miles (6 km)
Ceiling: 500 feet AGL
Clouds: overcast cloud deck at 500 feet AGL
Weather: -RA BR  (light rain, mist)
TAF Text: FM230000 12005KT 2SM -RA BR OVC002
Forecast period: 0000 to 1200 UTC 23 December 2014
Forecast type: FROM: standard forecast or significant change
Winds: from the ESE (120 degrees) at 6 MPH (5 knots; 2.6 m/s)
Visibility: 2.00 miles (3.22 km)
Ceiling: 200 feet AGL
Clouds: overcast cloud deck at 200 feet AGL
Weather: -RA BR  (light rain, mist)

Find All Airport Services Find A Hotel Find A Rental Car Find A Golf Course Find A Restaurant $100 Hamburger



FBO's on the Field
FBO Company Facility Photos Services Transportation Aviation Fuel Prices: Prices include tax
Catering Weather Repair Courtesy Rental Type 100LL JetA JetA+ MOGAS 8087
 
Eagles of America, Inc. - ABY

Currently rated 5 by 1 person
FS:Epic
Last Updated: Nov-24
Login to update fuel prices
SS:
Contact Eagles of America, Inc. - ABYMore FBO Information
 
Add another FBO Facility Photos Catering Weather Repair Courtesy Rental Type 100LL JetA JetA+ MOGAS 8087
Services Transportation Aviation Fuel Prices: Prices include tax


model-print
model-print
model-print
model-print